SWA1454 KDCA-KMDW
Flight info
| Callsign | SWA1454 |
|---|---|
| Flight time | 1h 40m |
| Altitude | 34000 |
| Route | WYNGS5 RAMAY Q72 HACKS J149 FWA PANGG7 |
| Aircraft | B738/M-SDE2E3FGHIRWXY/LB1 |
Departure
| Time | 2026-05-03 22:10 |
|---|---|
| Airport | Ronald Reagan Washington National Airport (KDCA) |
Arrival
| Time | 2026-05-03 23:50 |
|---|---|
| Airport | Chicago Midway International Airport (KMDW) |
| Time | Latitude | Longitude | Altitude | Speed | Heading |
|---|---|---|---|---|---|
| 2026-05-03 21:50 | 38.84682 | -77.04345 | 24 ft | 0 kts | 94° |
| 2026-05-03 22:01 | 38.84682 | -77.04353 | 24 ft | 1 kts | 58° |
| 2026-05-03 22:01 | 38.84672 | -77.04363 | 24 ft | 2 kts | 36° |
| 2026-05-03 22:01 | 38.84661 | -77.04376 | 24 ft | 2 kts | 46° |
| 2026-05-03 22:01 | 38.84650 | -77.04390 | 24 ft | 2 kts | 43° |
| 2026-05-03 22:02 | 38.84641 | -77.04401 | 24 ft | 1 kts | 54° |
| 2026-05-03 22:02 | 38.84639 | -77.04411 | 24 ft | 1 kts | 114° |
| 2026-05-03 22:02 | 38.84643 | -77.04418 | 24 ft | 1 kts | 148° |
| 2026-05-03 22:02 | 38.84647 | -77.04422 | 24 ft | 0 kts | 140° |
| 2026-05-03 22:05 | 38.84643 | -77.04417 | 24 ft | 1 kts | 139° |
| 2026-05-03 22:05 | 38.84631 | -77.04404 | 24 ft | 2 kts | 138° |
| 2026-05-03 22:05 | 38.84616 | -77.04386 | 24 ft | 3 kts | 137° |
| 2026-05-03 22:05 | 38.84600 | -77.04365 | 24 ft | 3 kts | 135° |
| 2026-05-03 22:06 | 38.84571 | -77.04310 | 24 ft | 13 kts | 109° |
| 2026-05-03 22:06 | 38.84582 | -77.04171 | 24 ft | 16 kts | 75° |
| 2026-05-03 22:06 | 38.84607 | -77.04043 | 24 ft | 12 kts | 105° |
| 2026-05-03 22:06 | 38.84541 | -77.04012 | 24 ft | 10 kts | 174° |
| 2026-05-03 22:07 | 38.84455 | -77.03993 | 24 ft | 14 kts | 166° |
| 2026-05-03 22:07 | 38.84349 | -77.03961 | 24 ft | 14 kts | 145° |
| 2026-05-03 22:07 | 38.84288 | -77.03842 | 24 ft | 17 kts | 146° |
| 2026-05-03 22:07 | 38.84223 | -77.03786 | 24 ft | 0 kts | 124° |
| 2026-05-03 22:08 | 38.84222 | -77.03786 | 24 ft | 0 kts | 124° |
| 2026-05-03 22:08 | 38.84211 | -77.03756 | 24 ft | 6 kts | 113° |
| 2026-05-03 22:08 | 38.84211 | -77.03688 | 24 ft | 9 kts | 42° |
| 2026-05-03 22:09 | 38.84267 | -77.03687 | 24 ft | 0 kts | 353° |
| 2026-05-03 22:09 | 38.84281 | -77.03690 | 24 ft | 4 kts | 353° |
| 2026-05-03 22:09 | 38.84454 | -77.03712 | 24 ft | 60 kts | 352° |
| 2026-05-03 22:10 | 38.86213 | -77.03861 | 170 ft | 173 kts | 353° |
| 2026-05-03 22:10 | 38.87442 | -77.03945 | 845 ft | 178 kts | 349° |
| 2026-05-03 22:10 | 38.88511 | -77.04577 | 1548 ft | 179 kts | 315° |
| 2026-05-03 22:10 | 38.89164 | -77.05902 | 2387 ft | 176 kts | 301° |
| 2026-05-03 22:11 | 38.89928 | -77.07096 | 3143 ft | 178 kts | 309° |
| 2026-05-03 22:11 | 38.90576 | -77.08398 | 3877 ft | 181 kts | 297° |
| 2026-05-03 22:11 | 38.91193 | -77.09891 | 4462 ft | 195 kts | 300° |
| 2026-05-03 22:11 | 38.92095 | -77.11231 | 5033 ft | 209 kts | 323° |
| 2026-05-03 22:12 | 38.93338 | -77.12257 | 5596 ft | 222 kts | 318° |
| 2026-05-03 22:12 | 38.94147 | -77.13947 | 6116 ft | 235 kts | 282° |
| 2026-05-03 22:12 | 38.94019 | -77.16104 | 6631 ft | 251 kts | 259° |
| 2026-05-03 22:12 | 38.93731 | -77.18359 | 7141 ft | 261 kts | 269° |
| 2026-05-03 22:13 | 38.93761 | -77.20682 | 7914 ft | 261 kts | 275° |
| 2026-05-03 22:13 | 38.93893 | -77.23031 | 8568 ft | 268 kts | 276° |
| 2026-05-03 22:13 | 38.94049 | -77.25473 | 8992 ft | 285 kts | 277° |
| 2026-05-03 22:13 | 38.94218 | -77.28061 | 9524 ft | 298 kts | 277° |
| 2026-05-03 22:14 | 38.94392 | -77.30756 | 10340 ft | 302 kts | 277° |
| 2026-05-03 22:14 | 38.94564 | -77.33421 | 11198 ft | 302 kts | 277° |
| 2026-05-03 22:14 | 38.94738 | -77.36119 | 12034 ft | 303 kts | 277° |
| 2026-05-03 22:14 | 38.94910 | -77.38776 | 12766 ft | 307 kts | 277° |
| 2026-05-03 22:15 | 38.95087 | -77.41524 | 13535 ft | 309 kts | 277° |
| 2026-05-03 22:15 | 38.95262 | -77.44256 | 14308 ft | 311 kts | 277° |
| 2026-05-03 22:15 | 38.95440 | -77.47056 | 15052 ft | 313 kts | 277° |
| 2026-05-03 22:15 | 38.95619 | -77.49868 | 15836 ft | 313 kts | 277° |
| 2026-05-03 22:16 | 38.95793 | -77.52651 | 16540 ft | 316 kts | 276° |
| 2026-05-03 22:16 | 38.95957 | -77.55447 | 17285 ft | 316 kts | 276° |
| 2026-05-03 22:16 | 38.96137 | -77.58254 | 18004 ft | 316 kts | 276° |
| 2026-05-03 22:16 | 38.96323 | -77.61125 | 18652 ft | 319 kts | 276° |
| 2026-05-03 22:17 | 38.96502 | -77.63937 | 19341 ft | 319 kts | 276° |
| 2026-05-03 22:17 | 38.96682 | -77.66811 | 19959 ft | 322 kts | 276° |
| 2026-05-03 22:17 | 38.96860 | -77.69667 | 20542 ft | 325 kts | 276° |
| 2026-05-03 22:17 | 38.97041 | -77.72606 | 21195 ft | 326 kts | 276° |
| 2026-05-03 22:18 | 38.97219 | -77.75509 | 21812 ft | 328 kts | 276° |
| 2026-05-03 22:18 | 38.97396 | -77.78418 | 22393 ft | 329 kts | 277° |
| 2026-05-03 22:18 | 38.97576 | -77.81374 | 22985 ft | 331 kts | 277° |
| 2026-05-03 22:18 | 38.97755 | -77.84326 | 23482 ft | 333 kts | 277° |
| 2026-05-03 22:19 | 38.97934 | -77.87275 | 24040 ft | 335 kts | 277° |
| 2026-05-03 22:19 | 38.98114 | -77.90269 | 24566 ft | 336 kts | 277° |
| 2026-05-03 22:19 | 38.98294 | -77.93284 | 25032 ft | 338 kts | 277° |
| 2026-05-03 22:19 | 38.98474 | -77.96304 | 25559 ft | 339 kts | 277° |
| 2026-05-03 22:20 | 38.98651 | -77.99309 | 26114 ft | 338 kts | 277° |
| 2026-05-03 22:20 | 38.98827 | -78.02320 | 26784 ft | 334 kts | 277° |
| 2026-05-03 22:20 | 38.98997 | -78.05239 | 27409 ft | 331 kts | 277° |
| 2026-05-03 22:20 | 38.99168 | -78.08173 | 27948 ft | 329 kts | 277° |
| 2026-05-03 22:21 | 38.99344 | -78.11151 | 28125 ft | 337 kts | 277° |
| 2026-05-03 22:21 | 38.99706 | -78.17308 | 28464 ft | 352 kts | 276° |
| 2026-05-03 22:21 | 38.99888 | -78.20476 | 28842 ft | 354 kts | 277° |
| 2026-05-03 22:22 | 39.00067 | -78.23601 | 29273 ft | 355 kts | 276° |
| 2026-05-03 22:22 | 39.00247 | -78.26766 | 29644 ft | 356 kts | 276° |
| 2026-05-03 22:22 | 39.00428 | -78.29965 | 30030 ft | 358 kts | 276° |
| 2026-05-03 22:22 | 39.00611 | -78.33185 | 30328 ft | 361 kts | 276° |
| 2026-05-03 22:23 | 39.00794 | -78.36426 | 30734 ft | 362 kts | 276° |
| 2026-05-03 22:23 | 39.00974 | -78.39642 | 31076 ft | 363 kts | 276° |
| 2026-05-03 22:23 | 39.01155 | -78.42872 | 31272 ft | 367 kts | 276° |
| 2026-05-03 22:23 | 39.01339 | -78.46180 | 31625 ft | 367 kts | 276° |
| 2026-05-03 22:24 | 39.01519 | -78.49468 | 31956 ft | 367 kts | 276° |
| 2026-05-03 22:24 | 39.01699 | -78.52761 | 32175 ft | 370 kts | 276° |
| 2026-05-03 22:24 | 39.01878 | -78.56049 | 32496 ft | 370 kts | 276° |
| 2026-05-03 22:24 | 39.02058 | -78.59362 | 32802 ft | 371 kts | 276° |
| 2026-05-03 22:25 | 39.02237 | -78.62688 | 32984 ft | 374 kts | 276° |
| 2026-05-03 22:25 | 39.02415 | -78.65987 | 33246 ft | 376 kts | 275° |
| 2026-05-03 22:25 | 39.02599 | -78.69410 | 33501 ft | 378 kts | 275° |
| 2026-05-03 22:25 | 39.02775 | -78.72747 | 33796 ft | 378 kts | 275° |
| 2026-05-03 22:26 | 39.02952 | -78.76112 | 33966 ft | 381 kts | 275° |
| 2026-05-03 22:26 | 39.03310 | -78.82928 | 34024 ft | 382 kts | 275° |
| 2026-05-03 22:27 | 39.03660 | -78.89660 | 34037 ft | 379 kts | 275° |
| 2026-05-03 22:27 | 39.04007 | -78.96410 | 34044 ft | 379 kts | 275° |
| 2026-05-03 22:28 | 39.04350 | -79.03194 | 34036 ft | 379 kts | 275° |
| 2026-05-03 22:28 | 39.04691 | -79.09944 | 34026 ft | 380 kts | 275° |
| 2026-05-03 22:29 | 39.05025 | -79.16713 | 34022 ft | 380 kts | 275° |
| 2026-05-03 22:29 | 39.05352 | -79.23438 | 34022 ft | 379 kts | 275° |
| 2026-05-03 22:30 | 39.05681 | -79.30199 | 34017 ft | 377 kts | 275° |
| 2026-05-03 22:30 | 39.06004 | -79.36955 | 34024 ft | 380 kts | 275° |
| 2026-05-03 22:31 | 39.06320 | -79.43717 | 34021 ft | 378 kts | 275° |
| 2026-05-03 22:31 | 39.06633 | -79.50446 | 34026 ft | 377 kts | 275° |
| 2026-05-03 22:32 | 39.06942 | -79.57114 | 34026 ft | 379 kts | 275° |
| 2026-05-03 22:32 | 39.07247 | -79.63840 | 34028 ft | 379 kts | 275° |
| 2026-05-03 22:33 | 39.07553 | -79.70589 | 34029 ft | 379 kts | 274° |
| 2026-05-03 22:33 | 39.07852 | -79.77338 | 34035 ft | 379 kts | 274° |
| 2026-05-03 22:34 | 39.08147 | -79.84081 | 34033 ft | 379 kts | 275° |
| 2026-05-03 22:34 | 39.08439 | -79.90865 | 34032 ft | 380 kts | 275° |
| 2026-05-03 22:35 | 39.08725 | -79.97632 | 34036 ft | 380 kts | 275° |
| 2026-05-03 22:35 | 39.09015 | -80.04472 | 34039 ft | 379 kts | 275° |
| 2026-05-03 22:36 | 39.09295 | -80.11202 | 34039 ft | 381 kts | 275° |
| 2026-05-03 22:36 | 39.09576 | -80.18054 | 34045 ft | 380 kts | 274° |
| 2026-05-03 22:37 | 39.09848 | -80.24796 | 34046 ft | 378 kts | 275° |
| 2026-05-03 22:37 | 39.10118 | -80.31582 | 34043 ft | 381 kts | 274° |
| 2026-05-03 22:38 | 39.10381 | -80.38351 | 34041 ft | 381 kts | 275° |
| 2026-05-03 22:38 | 39.10643 | -80.45198 | 34044 ft | 381 kts | 275° |
| 2026-05-03 22:39 | 39.10901 | -80.52013 | 34036 ft | 381 kts | 275° |
| 2026-05-03 22:39 | 39.11157 | -80.58804 | 34034 ft | 382 kts | 275° |
| 2026-05-03 22:40 | 39.11407 | -80.65618 | 34037 ft | 381 kts | 274° |
| 2026-05-03 22:40 | 39.11653 | -80.72397 | 34040 ft | 380 kts | 274° |
| 2026-05-03 22:41 | 39.11898 | -80.79265 | 34036 ft | 382 kts | 274° |
| 2026-05-03 22:41 | 39.12133 | -80.86070 | 34030 ft | 381 kts | 274° |
| 2026-05-03 22:42 | 39.12366 | -80.92838 | 34035 ft | 381 kts | 274° |
| 2026-05-03 22:42 | 39.12597 | -80.99611 | 34033 ft | 381 kts | 274° |
| 2026-05-03 22:43 | 39.13029 | -81.06441 | 34031 ft | 379 kts | 281° |
| 2026-05-03 22:43 | 39.14156 | -81.11332 | 34034 ft | 381 kts | 291° |
| 2026-05-03 22:44 | 39.16839 | -81.17636 | 34032 ft | 383 kts | 298° |
| 2026-05-03 22:44 | 39.19698 | -81.23495 | 34032 ft | 383 kts | 299° |
| 2026-05-03 22:45 | 39.22536 | -81.29348 | 34036 ft | 384 kts | 299° |
| 2026-05-03 22:45 | 39.25332 | -81.35166 | 34038 ft | 384 kts | 298° |
| 2026-05-03 22:46 | 39.28161 | -81.41077 | 34028 ft | 385 kts | 299° |
| 2026-05-03 22:46 | 39.30970 | -81.46964 | 34038 ft | 384 kts | 299° |
| 2026-05-03 22:47 | 39.33767 | -81.52840 | 34047 ft | 384 kts | 299° |
| 2026-05-03 22:47 | 39.36563 | -81.58727 | 34035 ft | 386 kts | 298° |
| 2026-05-03 22:48 | 39.39359 | -81.64621 | 34038 ft | 384 kts | 299° |
| 2026-05-03 22:48 | 39.42117 | -81.70449 | 34038 ft | 385 kts | 298° |
| 2026-05-03 22:49 | 39.44929 | -81.76405 | 34028 ft | 386 kts | 298° |
| 2026-05-03 22:49 | 39.47726 | -81.82341 | 34023 ft | 385 kts | 298° |
| 2026-05-03 22:50 | 39.50511 | -81.88262 | 34018 ft | 387 kts | 298° |
| 2026-05-03 22:50 | 39.53300 | -81.94208 | 34013 ft | 386 kts | 299° |
| 2026-05-03 22:51 | 39.56102 | -82.00188 | 34008 ft | 387 kts | 298° |
| 2026-05-03 22:51 | 39.58878 | -82.06122 | 33999 ft | 387 kts | 298° |
| 2026-05-03 22:52 | 39.61679 | -82.12116 | 34004 ft | 388 kts | 298° |
| 2026-05-03 22:52 | 39.64468 | -82.18100 | 34003 ft | 386 kts | 298° |
| 2026-05-03 22:53 | 39.67218 | -82.24011 | 34009 ft | 386 kts | 299° |
| 2026-05-03 22:53 | 39.69997 | -82.29999 | 34006 ft | 387 kts | 299° |
| 2026-05-03 22:54 | 39.72766 | -82.35975 | 34008 ft | 389 kts | 299° |
| 2026-05-03 22:54 | 39.75531 | -82.41949 | 34005 ft | 387 kts | 299° |
| 2026-05-03 22:55 | 39.78299 | -82.47942 | 34021 ft | 387 kts | 298° |
| 2026-05-03 22:55 | 39.81054 | -82.53925 | 34012 ft | 389 kts | 299° |
| 2026-05-03 22:56 | 39.83781 | -82.59851 | 34019 ft | 386 kts | 299° |
| 2026-05-03 22:57 | 39.88607 | -82.70367 | 34021 ft | 388 kts | 298° |
| 2026-05-03 22:57 | 39.91346 | -82.76356 | 34021 ft | 388 kts | 298° |
| 2026-05-03 22:58 | 39.94100 | -82.82391 | 34022 ft | 388 kts | 298° |
| 2026-05-03 22:58 | 39.96844 | -82.88418 | 34020 ft | 388 kts | 298° |
| 2026-05-03 22:59 | 39.99617 | -82.94515 | 34021 ft | 389 kts | 298° |
| 2026-05-03 22:59 | 40.02338 | -83.00513 | 34018 ft | 390 kts | 298° |
| 2026-05-03 23:00 | 40.05093 | -83.06594 | 34018 ft | 389 kts | 298° |
| 2026-05-03 23:00 | 40.07826 | -83.12636 | 34018 ft | 390 kts | 299° |
| 2026-05-03 23:01 | 40.10591 | -83.18760 | 34016 ft | 389 kts | 298° |
| 2026-05-03 23:01 | 40.13330 | -83.24847 | 34015 ft | 389 kts | 298° |
| 2026-05-03 23:02 | 40.16091 | -83.30997 | 34010 ft | 390 kts | 298° |
| 2026-05-03 23:02 | 40.18822 | -83.37087 | 34008 ft | 390 kts | 298° |
| 2026-05-03 23:03 | 40.21587 | -83.43260 | 34003 ft | 392 kts | 299° |
| 2026-05-03 23:03 | 40.24336 | -83.49410 | 34000 ft | 392 kts | 299° |
| 2026-05-03 23:04 | 40.27102 | -83.55616 | 33990 ft | 394 kts | 298° |
| 2026-05-03 23:04 | 40.29850 | -83.61790 | 33987 ft | 391 kts | 299° |
| 2026-05-03 23:05 | 40.32599 | -83.67979 | 33985 ft | 396 kts | 298° |
| 2026-05-03 23:05 | 40.35359 | -83.74206 | 33989 ft | 391 kts | 298° |
| 2026-05-03 23:06 | 40.38084 | -83.80363 | 33994 ft | 393 kts | 298° |
| 2026-05-03 23:06 | 40.40822 | -83.86565 | 33991 ft | 394 kts | 298° |
| 2026-05-03 23:07 | 40.43561 | -83.92784 | 33984 ft | 393 kts | 298° |
| 2026-05-03 23:07 | 40.46290 | -83.98991 | 33974 ft | 396 kts | 298° |
| 2026-05-03 23:08 | 40.49035 | -84.05248 | 33972 ft | 395 kts | 298° |
| 2026-05-03 23:08 | 40.51765 | -84.11486 | 33969 ft | 396 kts | 298° |
| 2026-05-03 23:09 | 40.54525 | -84.17802 | 33970 ft | 397 kts | 299° |
| 2026-05-03 23:09 | 40.57272 | -84.24099 | 33966 ft | 399 kts | 298° |
| 2026-05-03 23:10 | 40.60004 | -84.30374 | 33967 ft | 397 kts | 299° |
| 2026-05-03 23:10 | 40.62720 | -84.36627 | 33963 ft | 398 kts | 299° |
| 2026-05-03 23:11 | 40.65484 | -84.43014 | 33961 ft | 398 kts | 298° |
| 2026-05-03 23:11 | 40.68200 | -84.49295 | 33954 ft | 400 kts | 299° |
| 2026-05-03 23:12 | 40.70945 | -84.55651 | 33954 ft | 397 kts | 298° |
| 2026-05-03 23:12 | 40.73677 | -84.61994 | 33959 ft | 400 kts | 298° |
| 2026-05-03 23:13 | 40.76405 | -84.68340 | 33956 ft | 400 kts | 298° |
| 2026-05-03 23:13 | 40.79123 | -84.74679 | 33955 ft | 401 kts | 298° |
| 2026-05-03 23:14 | 40.81871 | -84.81101 | 33951 ft | 402 kts | 298° |
| 2026-05-03 23:14 | 40.84609 | -84.87512 | 33951 ft | 401 kts | 298° |
| 2026-05-03 23:15 | 40.87379 | -84.94005 | 33948 ft | 404 kts | 298° |
| 2026-05-03 23:15 | 40.90132 | -85.00474 | 33947 ft | 403 kts | 298° |
| 2026-05-03 23:16 | 40.92872 | -85.06930 | 33946 ft | 403 kts | 298° |
| 2026-05-03 23:16 | 40.95613 | -85.13376 | 33936 ft | 404 kts | 300° |
| 2026-05-03 23:17 | 40.99020 | -85.19111 | 33723 ft | 385 kts | 315° |
| 2026-05-03 23:17 | 41.01105 | -85.21274 | 33235 ft | 385 kts | 322° |
| 2026-05-03 23:17 | 41.03400 | -85.23193 | 32657 ft | 385 kts | 325° |
| 2026-05-03 23:17 | 41.05682 | -85.24983 | 32115 ft | 383 kts | 326° |
| 2026-05-03 23:18 | 41.07995 | -85.26785 | 31685 ft | 378 kts | 326° |
| 2026-05-03 23:18 | 41.10244 | -85.28545 | 31175 ft | 376 kts | 325° |
| 2026-05-03 23:18 | 41.12476 | -85.30301 | 30591 ft | 375 kts | 325° |
| 2026-05-03 23:18 | 41.14669 | -85.32032 | 30044 ft | 372 kts | 325° |
| 2026-05-03 23:19 | 41.16921 | -85.33805 | 29494 ft | 370 kts | 325° |
| 2026-05-03 23:19 | 41.19105 | -85.35530 | 28989 ft | 366 kts | 325° |
| 2026-05-03 23:19 | 41.21277 | -85.37246 | 28486 ft | 363 kts | 326° |
| 2026-05-03 23:19 | 41.23457 | -85.38969 | 27916 ft | 361 kts | 325° |
| 2026-05-03 23:20 | 41.25588 | -85.40658 | 27370 ft | 360 kts | 325° |
| 2026-05-03 23:20 | 41.27702 | -85.42334 | 26874 ft | 357 kts | 325° |
| 2026-05-03 23:20 | 41.29822 | -85.44017 | 26363 ft | 354 kts | 325° |
| 2026-05-03 23:20 | 41.31944 | -85.45702 | 25837 ft | 351 kts | 325° |
| 2026-05-03 23:21 | 41.34044 | -85.47372 | 25320 ft | 349 kts | 325° |
| 2026-05-03 23:21 | 41.36105 | -85.49009 | 24823 ft | 346 kts | 325° |
| 2026-05-03 23:21 | 41.38182 | -85.50662 | 24257 ft | 345 kts | 325° |
| 2026-05-03 23:21 | 41.40225 | -85.52289 | 23772 ft | 342 kts | 326° |
| 2026-05-03 23:22 | 41.44280 | -85.55522 | 22757 ft | 336 kts | 326° |
| 2026-05-03 23:22 | 41.46248 | -85.57203 | 22218 ft | 333 kts | 321° |
| 2026-05-03 23:22 | 41.48007 | -85.59200 | 21706 ft | 328 kts | 312° |
| 2026-05-03 23:23 | 41.49421 | -85.61582 | 21204 ft | 325 kts | 303° |
| 2026-05-03 23:23 | 41.50541 | -85.64185 | 20656 ft | 324 kts | 296° |
| 2026-05-03 23:23 | 41.51317 | -85.66924 | 20173 ft | 322 kts | 285° |
| 2026-05-03 23:23 | 41.51709 | -85.69830 | 19696 ft | 322 kts | 277° |
| 2026-05-03 23:24 | 41.51837 | -85.72703 | 19247 ft | 320 kts | 274° |
| 2026-05-03 23:24 | 41.51900 | -85.75699 | 18730 ft | 319 kts | 274° |
| 2026-05-03 23:24 | 41.51954 | -85.78681 | 18252 ft | 317 kts | 274° |
| 2026-05-03 23:24 | 41.52009 | -85.81628 | 17773 ft | 315 kts | 274° |
| 2026-05-03 23:25 | 41.52065 | -85.84551 | 17272 ft | 314 kts | 274° |
| 2026-05-03 23:25 | 41.52120 | -85.87429 | 16795 ft | 313 kts | 274° |
| 2026-05-03 23:25 | 41.52175 | -85.90318 | 16335 ft | 310 kts | 274° |
| 2026-05-03 23:25 | 41.52232 | -85.93153 | 15971 ft | 306 kts | 274° |
| 2026-05-03 23:26 | 41.52284 | -85.95953 | 15906 ft | 300 kts | 274° |
| 2026-05-03 23:26 | 41.52336 | -85.98763 | 15907 ft | 305 kts | 274° |
| 2026-05-03 23:26 | 41.52388 | -86.01600 | 15894 ft | 308 kts | 274° |
| 2026-05-03 23:26 | 41.52438 | -86.04497 | 15895 ft | 308 kts | 274° |
| 2026-05-03 23:27 | 41.52487 | -86.07336 | 15896 ft | 307 kts | 274° |
| 2026-05-03 23:27 | 41.52497 | -86.10162 | 15893 ft | 308 kts | 272° |
| 2026-05-03 23:27 | 41.52480 | -86.13026 | 15893 ft | 308 kts | 272° |
| 2026-05-03 23:27 | 41.52461 | -86.15891 | 15888 ft | 308 kts | 272° |
| 2026-05-03 23:28 | 41.52445 | -86.18792 | 15891 ft | 309 kts | 272° |
| 2026-05-03 23:28 | 41.52430 | -86.21649 | 15890 ft | 307 kts | 272° |
| 2026-05-03 23:28 | 41.52415 | -86.24495 | 15894 ft | 307 kts | 272° |
| 2026-05-03 23:28 | 41.52401 | -86.27338 | 15888 ft | 309 kts | 272° |
| 2026-05-03 23:29 | 41.52385 | -86.30211 | 15891 ft | 309 kts | 272° |
| 2026-05-03 23:29 | 41.52369 | -86.33061 | 15889 ft | 308 kts | 272° |
| 2026-05-03 23:29 | 41.52351 | -86.35905 | 15724 ft | 303 kts | 272° |
| 2026-05-03 23:29 | 41.52334 | -86.38716 | 15127 ft | 306 kts | 272° |
| 2026-05-03 23:30 | 41.52316 | -86.41553 | 14660 ft | 304 kts | 272° |
| 2026-05-03 23:30 | 41.52297 | -86.44354 | 14224 ft | 302 kts | 272° |
| 2026-05-03 23:30 | 41.52278 | -86.47156 | 13758 ft | 300 kts | 272° |
| 2026-05-03 23:30 | 41.52259 | -86.49920 | 13328 ft | 297 kts | 272° |
| 2026-05-03 23:31 | 41.52239 | -86.52682 | 12897 ft | 295 kts | 272° |
| 2026-05-03 23:31 | 41.52219 | -86.55403 | 12462 ft | 293 kts | 272° |
| 2026-05-03 23:31 | 41.52198 | -86.58090 | 12062 ft | 291 kts | 272° |
| 2026-05-03 23:31 | 41.52177 | -86.60774 | 11620 ft | 289 kts | 272° |
| 2026-05-03 23:32 | 41.52156 | -86.63457 | 11187 ft | 287 kts | 272° |
| 2026-05-03 23:32 | 41.52134 | -86.66048 | 10780 ft | 286 kts | 271° |
| 2026-05-03 23:32 | 41.52111 | -86.68672 | 10382 ft | 283 kts | 271° |
| 2026-05-03 23:32 | 41.52089 | -86.71317 | 9971 ft | 281 kts | 271° |
| 2026-05-03 23:33 | 41.52065 | -86.73880 | 9893 ft | 275 kts | 271° |
| 2026-05-03 23:33 | 41.52041 | -86.76447 | 9860 ft | 277 kts | 271° |
| 2026-05-03 23:33 | 41.52015 | -86.78977 | 9890 ft | 262 kts | 271° |
| 2026-05-03 23:33 | 41.51991 | -86.81362 | 9718 ft | 254 kts | 271° |
| 2026-05-03 23:34 | 41.51969 | -86.83677 | 9426 ft | 251 kts | 271° |
| 2026-05-03 23:34 | 41.51948 | -86.85996 | 9083 ft | 249 kts | 270° |
| 2026-05-03 23:34 | 41.51924 | -86.88298 | 8788 ft | 246 kts | 270° |
| 2026-05-03 23:34 | 41.51901 | -86.90572 | 8442 ft | 245 kts | 270° |
| 2026-05-03 23:35 | 41.51876 | -86.92819 | 8138 ft | 242 kts | 270° |
| 2026-05-03 23:35 | 41.51851 | -86.95057 | 7814 ft | 241 kts | 269° |
| 2026-05-03 23:35 | 41.51826 | -86.97302 | 7478 ft | 239 kts | 269° |
| 2026-05-03 23:35 | 41.51801 | -86.99548 | 7152 ft | 237 kts | 269° |
| 2026-05-03 23:36 | 41.51775 | -87.01732 | 6862 ft | 234 kts | 269° |
| 2026-05-03 23:36 | 41.51750 | -87.03902 | 6530 ft | 233 kts | 268° |
| 2026-05-03 23:36 | 41.51723 | -87.06042 | 6216 ft | 231 kts | 268° |
| 2026-05-03 23:36 | 41.51698 | -87.08172 | 5924 ft | 228 kts | 268° |
| 2026-05-03 23:37 | 41.51672 | -87.10292 | 5877 ft | 224 kts | 268° |
| 2026-05-03 23:37 | 41.51669 | -87.12395 | 5872 ft | 231 kts | 272° |
| 2026-05-03 23:37 | 41.52083 | -87.14493 | 5874 ft | 237 kts | 293° |
| 2026-05-03 23:37 | 41.53138 | -87.16251 | 5881 ft | 242 kts | 312° |
| 2026-05-03 23:38 | 41.54599 | -87.17449 | 5798 ft | 248 kts | 329° |
| 2026-05-03 23:38 | 41.56227 | -87.18255 | 5276 ft | 253 kts | 334° |
| 2026-05-03 23:38 | 41.57899 | -87.19057 | 4702 ft | 257 kts | 333° |
| 2026-05-03 23:38 | 41.59584 | -87.19886 | 4209 ft | 257 kts | 333° |
| 2026-05-03 23:39 | 41.61269 | -87.20722 | 3891 ft | 252 kts | 333° |
| 2026-05-03 23:39 | 41.62899 | -87.21535 | 3864 ft | 253 kts | 333° |
| 2026-05-03 23:39 | 41.64581 | -87.22381 | 3852 ft | 256 kts | 333° |
| 2026-05-03 23:39 | 41.66283 | -87.23234 | 3846 ft | 258 kts | 333° |
| 2026-05-03 23:40 | 41.67967 | -87.24077 | 3845 ft | 257 kts | 333° |
| 2026-05-03 23:40 | 41.69603 | -87.24897 | 3855 ft | 256 kts | 333° |
| 2026-05-03 23:40 | 41.71269 | -87.25732 | 3841 ft | 257 kts | 333° |
| 2026-05-03 23:40 | 41.72946 | -87.26575 | 3852 ft | 257 kts | 333° |
| 2026-05-03 23:41 | 41.74621 | -87.27415 | 3840 ft | 257 kts | 333° |
| 2026-05-03 23:41 | 41.76282 | -87.28307 | 3845 ft | 256 kts | 329° |
| 2026-05-03 23:41 | 41.77900 | -87.29311 | 3857 ft | 254 kts | 328° |
| 2026-05-03 23:41 | 41.79475 | -87.30305 | 3682 ft | 248 kts | 328° |
| 2026-05-03 23:42 | 41.81065 | -87.31306 | 3085 ft | 253 kts | 328° |
| 2026-05-03 23:42 | 41.82642 | -87.32299 | 2842 ft | 247 kts | 326° |
| 2026-05-03 23:42 | 41.84027 | -87.33601 | 2839 ft | 242 kts | 307° |
| 2026-05-03 23:42 | 41.84821 | -87.35510 | 2845 ft | 230 kts | 281° |
| 2026-05-03 23:43 | 41.85013 | -87.37545 | 2835 ft | 209 kts | 268° |
| 2026-05-03 23:43 | 41.85015 | -87.39428 | 2834 ft | 196 kts | 266° |
| 2026-05-03 23:43 | 41.85013 | -87.41233 | 2839 ft | 196 kts | 266° |
| 2026-05-03 23:43 | 41.85011 | -87.43087 | 2842 ft | 196 kts | 266° |
| 2026-05-03 23:44 | 41.85014 | -87.44911 | 2841 ft | 196 kts | 266° |
| 2026-05-03 23:44 | 41.85014 | -87.46688 | 2838 ft | 190 kts | 266° |
| 2026-05-03 23:44 | 41.85016 | -87.48395 | 2835 ft | 172 kts | 265° |
| 2026-05-03 23:44 | 41.85014 | -87.49950 | 2855 ft | 159 kts | 265° |
| 2026-05-03 23:45 | 41.85013 | -87.51418 | 2851 ft | 159 kts | 265° |
| 2026-05-03 23:45 | 41.85010 | -87.52883 | 2836 ft | 156 kts | 265° |
| 2026-05-03 23:45 | 41.85008 | -87.54345 | 2839 ft | 153 kts | 265° |
| 2026-05-03 23:45 | 41.84966 | -87.55796 | 2835 ft | 155 kts | 263° |
| 2026-05-03 23:46 | 41.84906 | -87.57195 | 2823 ft | 146 kts | 262° |
| 2026-05-03 23:46 | 41.84855 | -87.58473 | 2846 ft | 135 kts | 262° |
| 2026-05-03 23:46 | 41.84793 | -87.59773 | 2830 ft | 139 kts | 262° |
| 2026-05-03 23:46 | 41.84736 | -87.61028 | 2649 ft | 132 kts | 262° |
| 2026-05-03 23:47 | 41.84678 | -87.62229 | 2310 ft | 129 kts | 261° |
| 2026-05-03 23:47 | 41.84621 | -87.63407 | 2298 ft | 127 kts | 260° |
| 2026-05-03 23:47 | 41.84527 | -87.64608 | 2349 ft | 136 kts | 252° |
| 2026-05-03 23:47 | 41.84070 | -87.65600 | 2342 ft | 134 kts | 229° |
| 2026-05-03 23:48 | 41.83477 | -87.66625 | 2323 ft | 137 kts | 234° |
| 2026-05-03 23:48 | 41.82961 | -87.67609 | 2102 ft | 133 kts | 236° |
| 2026-05-03 23:48 | 41.82676 | -87.68778 | 1879 ft | 128 kts | 256° |
| 2026-05-03 23:48 | 41.82468 | -87.69833 | 1693 ft | 114 kts | 240° |
| 2026-05-03 23:49 | 41.82037 | -87.70690 | 1407 ft | 110 kts | 221° |
| 2026-05-03 23:49 | 41.81493 | -87.71359 | 1187 ft | 110 kts | 221° |
| 2026-05-03 23:49 | 41.80910 | -87.72096 | 1083 ft | 121 kts | 225° |
| 2026-05-03 23:49 | 41.80311 | -87.72885 | 1068 ft | 125 kts | 222° |
| 2026-05-03 23:50 | 41.79673 | -87.73683 | 876 ft | 132 kts | 221° |
| 2026-05-03 23:50 | 41.79314 | -87.74149 | 736 ft | 133 kts | 222° |
| 2026-05-03 23:50 | 41.78304 | -87.75440 | 628 ft | 14 kts | 223° |
| 2026-05-03 23:51 | 41.78232 | -87.75501 | 628 ft | 4 kts | 180° |
| 2026-05-03 23:51 | 41.78207 | -87.75483 | 628 ft | 3 kts | 142° |
| 2026-05-03 23:51 | 41.78194 | -87.75445 | 628 ft | 7 kts | 97° |
| 2026-05-03 23:51 | 41.78214 | -87.75356 | 628 ft | 13 kts | 44° |
| 2026-05-03 23:52 | 41.78303 | -87.75247 | 628 ft | 21 kts | 41° |
| 2026-05-03 23:52 | 41.78411 | -87.75102 | 628 ft | 22 kts | 50° |
| 2026-05-03 23:52 | 41.78511 | -87.74981 | 628 ft | 17 kts | 43° |
| 2026-05-03 23:52 | 41.78595 | -87.74875 | 628 ft | 13 kts | 43° |
| 2026-05-03 23:53 | 41.78621 | -87.74815 | 628 ft | 6 kts | 105° |
| 2026-05-03 23:53 | 41.78599 | -87.74773 | 628 ft | 4 kts | 133° |
| 2026-05-03 23:53 | 41.78558 | -87.74714 | 628 ft | 14 kts | 134° |
| 2026-05-03 23:53 | 41.78502 | -87.74608 | 628 ft | 12 kts | 74° |
| 2026-05-03 23:54 | 41.78559 | -87.74528 | 628 ft | 11 kts | 43° |
| 2026-05-03 23:54 | 41.78612 | -87.74458 | 628 ft | 10 kts | 44° |
| 2026-05-03 23:54 | 41.78663 | -87.74393 | 628 ft | 9 kts | 44° |
| 2026-05-03 23:54 | 41.78710 | -87.74333 | 628 ft | 8 kts | 41° |
| 2026-05-03 23:55 | 41.78760 | -87.74295 | 628 ft | 6 kts | 15° |
| 2026-05-03 23:55 | 41.78783 | -87.74292 | 628 ft | 3 kts | 353° |
| 2026-05-03 23:55 | 41.78796 | -87.74295 | 628 ft | 0 kts | 346° |
| 2026-05-03 23:55 | 41.78800 | -87.74297 | 628 ft | 0 kts | 345° |